Fayetteville, AR

7:43 AM CDT on August 30, 2015 (GMT -0500)
Porter Road, Fayetteville | | Change Station
CLOSE
Current Station
Personal Weather Station
Location: Fayetteville, AR
Elevation: 1260 ft
Nearby Weather Stations

Elev 1260 ft 36.08 °N, 94.19 °W | Updated 16 seconds ago

Partly Cloudy
Partly Cloudy
69.4 °F
Feels Like 69.4 °F
N
0.0
Wind Variable Wind from ESE
Gusts 0.0 mph

Today
High -- | Low -- °F
--% Chance of Precip.
Yesterday
High -- | Low -- °F
Precip. -- in
6:46 AM 7:47 PM
Full, 99% visible
Pressure 29.98 in
Visibility 4.0 miles
Clouds Clear
Dew Point 69 °F
Humidity 99%
Rainfall 0.02 in
Snow Depth Not available.
UV 0 out of 12
Pollen 9.50 out of 12
Air Quality Not available.
Flu Activity Not available.
METAR KFYV 301153Z 00000KT 4SM BR CLR 21/21 A3001 RMK AO2 SLP150 T02060206 10222 20206 53005
Pressure 29.98 in
Visibility 4.0 miles
Clouds Clear
Dew Point 69 °F
Humidity 99%
Rainfall 0.02 in
Snow Depth Not available.
UV 0 out of 12
Pollen 9.50 out of 12
Air Quality Not available.
Flu Activity Not available.
METAR KFYV 301153Z 00000KT 4SM BR CLR 21/21 A3001 RMK AO2 SLP150 T02060206 10222 20206 53005
Nowcast | as of 7:22 am CDT on August 30, 2015

at 7:18 am...National Weather Service Doppler radar indicated an isolated shower or two diminishing across parts of northwest Arkansas and east central Oklahoma. Through 9 am...isolated showers are expected to continue diminishing. Little additional rainfall is anticipated. This will be the final short term forecast concerning this mornings precipitation.

×

10-Day Weather Forecast

×

Almanac

Astronomy

Aug. 30, 2015 Rise Set
Actual Time
Civil Twilight
Nautical Twilight
Astronomical Twilight
Moon
Length of Visible Light
Length of Day
Tomorrow will be .
, % of the Moon is Illuminated

Today's Extremes

State Highs State Lows

Community

WunderPhotos

Upload Photos

1,850,940 photos uploaded!

WunderBlogs® & News

Nearby

Air Quality

  Air Quality AQ Index Pollutant
Not available.

Snow Depth

Station Depth Elevation

Earthquake Activity

City Distance Mag. Time & Date
Minimum magnitude displayed is 2.5.

Coastal Water Temperatures

Place Temperature

Stations

Nearby Weather Stations

Station Location Temp. Windchill Dew Point Humidity Wind Precip. Elev Updated Type